createdAt,value
2022-11-01T00:00:06.316Z,12.00
2022-11-01T00:03:00.977Z,11.20
2022-11-01T00:05:29.243Z,12.40
2022-11-01T00:07:57.488Z,11.10
2022-11-01T00:10:25.686Z,11.30
2022-11-01T00:12:54.615Z,10.70
2022-11-01T00:15:22.923Z,11.40
2022-11-01T00:17:51.088Z,10.90
2022-11-01T00:20:19.257Z,10.90
2022-11-01T00:22:47.528Z,10.70
2022-11-01T00:25:15.868Z,10.70
2022-11-01T00:27:44.086Z,10.50
2022-11-01T00:30:12.599Z,10.80
2022-11-01T00:32:41.431Z,10.10
2022-11-01T00:35:09.768Z,11.20
2022-11-01T00:37:38.101Z,10.00
2022-11-01T00:40:06.926Z,9.20
2022-11-01T00:42:35.144Z,10.50
2022-11-01T00:45:05.264Z,10.00
2022-11-01T00:47:33.479Z,9.70
2022-11-01T00:50:01.766Z,10.00
2022-11-01T00:52:30.097Z,9.30
2022-11-01T00:54:58.251Z,10.80
2022-11-01T00:57:26.446Z,9.60
2022-11-01T00:59:54.799Z,9.10
2022-11-01T01:02:23.280Z,8.90
2022-11-01T01:04:51.630Z,10.00
2022-11-01T01:07:19.820Z,10.90
2022-11-01T01:09:48.057Z,9.70
2022-11-01T01:12:16.215Z,9.10
2022-11-01T01:14:44.447Z,8.50
2022-11-01T01:17:12.680Z,9.70
2022-11-01T01:19:41.545Z,9.60
2022-11-01T01:22:09.951Z,9.40
2022-11-01T01:24:45.563Z,9.70
2022-11-01T01:27:15.534Z,9.20
2022-11-01T01:29:47.344Z,9.10
2022-11-01T01:32:20.760Z,8.90
2022-11-01T01:34:49.927Z,8.10
2022-11-01T01:37:20.339Z,8.80
2022-11-01T01:39:48.621Z,8.70
2022-11-01T01:42:26.064Z,8.90
2022-11-01T01:44:57.307Z,8.50
2022-11-01T01:47:29.945Z,8.50
2022-11-01T01:50:04.387Z,8.40
2022-11-01T01:52:40.341Z,7.90
2022-11-01T01:55:11.347Z,8.10
2022-11-01T01:57:40.822Z,8.90
2022-11-01T02:00:09.842Z,9.30
2022-11-01T02:02:42.424Z,8.50
2022-11-01T02:05:22.389Z,9.00
2022-11-01T02:07:50.620Z,8.90
2022-11-01T02:10:20.721Z,9.00
2022-11-01T02:12:49.864Z,9.10
2022-11-01T02:15:23.682Z,10.00
2022-11-01T02:18:12.945Z,9.60
2022-11-01T02:21:02.150Z,8.30
2022-11-01T02:23:58.181Z,8.20
2022-11-01T02:26:33.487Z,8.40
2022-11-01T02:29:10.924Z,8.10
2022-11-01T02:32:06.475Z,11.10
2022-11-01T02:34:48.154Z,8.70
2022-11-01T02:37:48.688Z,9.20
2022-11-01T02:40:46.013Z,9.10
2022-11-01T02:43:20.999Z,9.10
2022-11-01T02:48:22.022Z,8.80
2022-11-01T02:50:56.103Z,9.40
2022-11-01T02:53:24.492Z,9.20
2022-11-01T02:55:53.899Z,9.30
2022-11-01T02:58:29.042Z,9.60
2022-11-01T03:00:57.438Z,8.00
2022-11-01T03:03:32.604Z,9.40
2022-11-01T03:06:00.923Z,8.80
2022-11-01T03:08:55.478Z,8.70
2022-11-01T03:11:36.649Z,9.00
2022-11-01T03:14:23.527Z,7.90
2022-11-01T03:17:12.802Z,8.70
2022-11-01T03:19:59.847Z,9.00
2022-11-01T03:23:01.493Z,8.30
2022-11-01T03:25:41.858Z,8.20
2022-11-01T03:28:33.980Z,7.90
2022-11-01T03:31:11.436Z,8.20
2022-11-01T03:33:52.161Z,8.30
2022-11-01T03:36:24.558Z,7.90
2022-11-01T03:38:59.957Z,8.90
2022-11-01T03:41:33.180Z,8.40
2022-11-01T03:44:03.180Z,7.20
2022-11-01T03:46:31.739Z,8.10
2022-11-01T03:49:00.134Z,9.10
2022-11-01T03:51:28.437Z,10.20
2022-11-01T03:53:56.624Z,10.70
2022-11-01T03:56:24.885Z,10.40
2022-11-01T03:58:53.254Z,11.90
2022-11-01T04:01:21.680Z,12.40
2022-11-01T04:03:49.985Z,14.20
2022-11-01T04:06:18.221Z,14.20
2022-11-01T04:08:46.450Z,14.40
2022-11-01T04:11:14.610Z,14.90
2022-11-01T04:13:43.601Z,15.30
2022-11-01T04:16:30.441Z,14.80
2022-11-01T04:19:17.059Z,16.10
2022-11-01T04:21:45.546Z,12.70
2022-11-01T04:24:21.258Z,12.30
2022-11-01T04:26:49.771Z,13.90
2022-11-01T04:29:18.042Z,13.60
2022-11-01T04:31:46.228Z,13.20
2022-11-01T04:34:34.419Z,12.90
2022-11-01T04:37:02.649Z,14.20
2022-11-01T04:39:30.820Z,13.40
2022-11-01T04:41:59.017Z,14.10
2022-11-01T04:44:27.354Z,13.30
2022-11-01T04:46:55.607Z,14.40
2022-11-01T04:49:23.851Z,15.30
2022-11-01T04:51:52.395Z,16.50
2022-11-01T04:54:20.614Z,15.20
2022-11-01T04:56:48.856Z,15.20
2022-11-01T04:59:17.093Z,15.60
2022-11-01T05:01:45.484Z,15.80
2022-11-01T05:04:13.958Z,15.60
2022-11-01T05:06:42.298Z,16.30
2022-11-01T05:09:10.522Z,15.70
2022-11-01T05:11:38.795Z,16.90
2022-11-01T05:14:07.659Z,15.40
2022-11-01T05:16:35.874Z,16.10
2022-11-01T05:19:04.135Z,15.50
2022-11-01T05:21:32.431Z,14.10
2022-11-01T05:24:00.797Z,15.90
2022-11-01T05:26:29.027Z,16.30
2022-11-01T05:28:57.298Z,16.50
2022-11-01T05:31:25.653Z,17.30
2022-11-01T05:33:53.873Z,15.80
2022-11-01T05:36:22.193Z,15.10
2022-11-01T05:38:50.538Z,14.70
2022-11-01T05:41:18.909Z,15.00
2022-11-01T05:43:47.230Z,16.70
2022-11-01T05:46:15.535Z,18.00
2022-11-01T05:48:44.133Z,17.20
2022-11-01T05:51:12.383Z,17.40
2022-11-01T05:53:40.641Z,17.40
2022-11-01T05:56:08.924Z,16.70
2022-11-01T05:58:37.293Z,17.90
2022-11-01T06:01:07.531Z,17.50
2022-11-01T06:03:36.961Z,17.40
2022-11-01T06:06:05.501Z,16.80
2022-11-01T06:08:33.769Z,16.80
2022-11-01T06:11:03.891Z,17.10
2022-11-01T06:13:33.341Z,17.80
2022-11-01T06:16:03.665Z,18.90
2022-11-01T06:18:32.231Z,16.50
2022-11-01T06:21:00.577Z,16.90
2022-11-01T06:23:28.782Z,21.80
2022-11-01T06:26:02.173Z,19.10
2022-11-01T06:28:31.005Z,22.50
2022-11-01T06:31:07.061Z,20.80
2022-11-01T06:33:35.529Z,21.80
2022-11-01T06:36:04.162Z,22.20
2022-11-01T06:38:32.358Z,24.00
2022-11-01T06:41:00.598Z,22.00
2022-11-01T06:43:28.874Z,23.80
2022-11-01T06:45:59.763Z,23.00
2022-11-01T06:48:29.213Z,23.30
2022-11-01T06:50:57.525Z,21.00
2022-11-01T06:53:25.879Z,23.60
2022-11-01T06:55:54.138Z,22.00
2022-11-01T06:58:22.312Z,22.90
2022-11-01T07:00:50.628Z,22.40
2022-11-01T07:03:18.941Z,21.20
2022-11-01T07:05:49.575Z,20.50
2022-11-01T07:08:17.856Z,21.30
2022-11-01T07:10:46.163Z,20.80
2022-11-01T07:13:14.480Z,22.20
2022-11-01T07:15:42.784Z,20.50
2022-11-01T07:18:11.134Z,19.60
2022-11-01T07:20:42.861Z,20.40
2022-11-01T07:23:16.444Z,20.80
2022-11-01T07:25:45.360Z,21.40
2022-11-01T07:28:13.730Z,21.40
2022-11-01T07:30:42.237Z,22.00
2022-11-01T07:33:10.420Z,21.30
2022-11-01T07:35:38.710Z,19.90
2022-11-01T07:38:09.876Z,23.70
2022-11-01T07:40:41.737Z,22.80
2022-11-01T07:43:09.979Z,21.90
2022-11-01T07:45:38.309Z,22.20
2022-11-01T07:48:10.691Z,21.80
2022-11-01T07:50:40.675Z,22.50
2022-11-01T07:53:14.688Z,23.70
2022-11-01T07:55:43.453Z,24.40
2022-11-01T07:58:13.152Z,23.40
2022-11-01T08:00:43.094Z,24.40
2022-11-01T08:03:14.645Z,26.10
2022-11-01T08:05:44.158Z,27.90
2022-11-01T08:08:13.411Z,26.90
2022-11-01T08:10:42.598Z,28.20
2022-11-01T08:13:21.458Z,28.50
2022-11-01T08:15:52.278Z,28.90
2022-11-01T08:18:22.697Z,29.10
2022-11-01T08:20:51.947Z,28.90
2022-11-01T08:23:21.001Z,28.30
2022-11-01T08:25:49.225Z,29.50
2022-11-01T08:28:19.720Z,29.70
2022-11-01T08:30:49.716Z,29.70
2022-11-01T08:33:18.183Z,30.50
2022-11-01T08:35:50.501Z,30.50
2022-11-01T08:38:19.619Z,29.40
2022-11-01T08:40:48.440Z,32.10
2022-11-01T08:43:17.728Z,34.00
2022-11-01T08:45:46.416Z,35.90
2022-11-01T08:48:14.607Z,34.60
2022-11-01T08:50:43.181Z,37.70
2022-11-01T08:53:14.240Z,37.20
2022-11-01T08:55:42.525Z,36.20
2022-11-01T08:58:11.177Z,38.70
2022-11-01T09:00:39.492Z,37.60
2022-11-01T09:03:07.849Z,37.80
2022-11-01T09:05:36.116Z,40.80
2022-11-01T09:08:05.122Z,39.40
2022-11-01T09:13:34.630Z,39.50
2022-11-01T09:16:07.100Z,40.10
2022-11-01T09:18:35.814Z,40.90
2022-11-01T09:21:04.620Z,42.10
2022-11-01T09:23:34.191Z,41.60
2022-11-01T09:26:05.147Z,40.70
2022-11-01T09:28:34.744Z,42.10
2022-11-01T09:31:19.411Z,41.40
2022-11-01T09:33:49.046Z,38.40
2022-11-01T09:36:17.344Z,37.30
2022-11-01T09:38:47.640Z,41.00
2022-11-01T09:41:39.173Z,37.70
2022-11-01T09:44:14.851Z,39.70
2022-11-01T09:46:52.134Z,41.40
2022-11-01T09:49:28.935Z,37.70
2022-11-01T09:51:58.163Z,40.40
2022-11-01T09:54:28.852Z,39.40
2022-11-01T09:57:05.888Z,41.40
2022-11-01T09:59:37.690Z,40.20
2022-11-01T10:02:41.453Z,42.20
2022-11-01T10:05:35.038Z,40.50
2022-11-01T10:08:31.454Z,40.60
2022-11-01T10:11:21.278Z,37.70
2022-11-01T10:14:28.226Z,37.20
2022-11-01T10:17:16.924Z,37.70
2022-11-01T10:19:50.031Z,39.10
2022-11-01T10:22:28.739Z,37.60
2022-11-01T10:25:16.138Z,41.20
2022-11-01T10:28:03.255Z,37.60
2022-11-01T10:30:38.568Z,36.00
2022-11-01T10:33:26.625Z,39.50
2022-11-01T10:36:00.520Z,38.80
2022-11-01T10:39:10.809Z,37.40
2022-11-01T10:41:37.265Z,36.00
2022-11-01T10:44:15.044Z,35.50
2022-11-01T10:46:47.641Z,35.80
2022-11-01T10:49:40.441Z,38.30
2022-11-01T10:52:23.492Z,36.40
2022-11-01T10:54:53.410Z,36.60
2022-11-01T10:57:31.005Z,37.50
2022-11-01T11:00:05.431Z,33.20
2022-11-01T11:02:40.353Z,34.60
2022-11-01T11:05:13.755Z,33.50
2022-11-01T11:07:42.694Z,34.00
2022-11-01T11:10:29.080Z,37.60
2022-11-01T11:13:03.128Z,36.10
2022-11-01T11:15:53.492Z,34.90
2022-11-01T11:18:36.760Z,35.40
2022-11-01T11:21:11.996Z,35.60
2022-11-01T11:23:46.362Z,38.60
2022-11-01T11:26:18.265Z,36.90
2022-11-01T11:28:53.564Z,33.70
2022-11-01T11:31:31.669Z,41.20
2022-11-01T11:34:24.974Z,38.40
2022-11-01T11:36:55.132Z,35.30
2022-11-01T11:39:29.356Z,34.80
2022-11-01T11:42:15.144Z,36.30
2022-11-01T11:44:50.606Z,36.50
2022-11-01T11:47:28.489Z,40.00
2022-11-01T11:49:58.791Z,38.20
2022-11-01T11:52:38.012Z,34.90
2022-11-01T11:55:26.484Z,35.60
2022-11-01T11:57:55.596Z,36.90
2022-11-01T12:00:29.563Z,36.70
2022-11-01T12:03:02.383Z,39.40
2022-11-01T12:05:30.952Z,38.70
2022-11-01T12:07:59.314Z,38.60
2022-11-01T12:10:39.692Z,42.60
2022-11-01T12:13:28.631Z,38.80
2022-11-01T12:19:00.233Z,37.60
2022-11-01T12:21:40.180Z,38.90
2022-11-01T12:24:41.717Z,41.10
2022-11-01T12:27:15.753Z,42.70
2022-11-01T12:29:52.282Z,40.20
2022-11-01T12:32:40.843Z,40.50
2022-11-01T12:35:22.178Z,37.50
2022-11-01T12:38:02.876Z,37.70
2022-11-01T12:40:37.964Z,38.30
2022-11-01T12:43:48.779Z,39.00
2022-11-01T12:46:51.172Z,39.50
2022-11-01T12:49:19.405Z,36.90
2022-11-01T12:51:52.672Z,37.90
2022-11-01T12:54:26.056Z,36.20
2022-11-01T12:56:56.578Z,40.00
2022-11-01T12:59:44.453Z,39.20
2022-11-01T13:02:50.473Z,40.60
2022-11-01T13:05:25.238Z,39.40
2022-11-01T13:08:07.235Z,39.50
2022-11-01T13:10:44.204Z,36.40
2022-11-01T13:13:18.555Z,38.40
2022-11-01T13:16:05.258Z,39.50
2022-11-01T13:19:00.925Z,37.20
2022-11-01T13:21:36.190Z,37.70
2022-11-01T13:24:13.599Z,35.10
2022-11-01T13:26:46.876Z,35.30
2022-11-01T13:29:45.451Z,35.40
2022-11-01T13:32:28.770Z,33.10
2022-11-01T13:34:59.661Z,34.20
2022-11-01T13:37:45.400Z,34.80
2022-11-01T13:40:28.134Z,34.40
2022-11-01T13:43:04.177Z,33.60
2022-11-01T13:45:51.712Z,35.20
2022-11-01T13:48:42.043Z,36.90
2022-11-01T13:51:45.460Z,35.50
2022-11-01T13:54:32.641Z,33.80
2022-11-01T13:57:11.319Z,34.20
2022-11-01T13:59:45.395Z,34.60
2022-11-01T14:02:22.696Z,35.00
2022-11-01T14:05:03.081Z,32.60
2022-11-01T14:08:20.843Z,30.50
2022-11-01T14:10:50.849Z,30.50
2022-11-01T14:13:31.636Z,29.20
2022-11-01T14:16:19.632Z,29.90
2022-11-01T14:19:03.309Z,30.10
2022-11-01T14:21:41.081Z,28.90
2022-11-01T14:24:53.292Z,27.60
2022-11-01T14:27:48.856Z,28.70
2022-11-01T14:30:23.719Z,29.00
2022-11-01T14:32:57.432Z,27.10
2022-11-01T14:35:35.105Z,28.00
2022-11-01T14:38:13.366Z,28.00
2022-11-01T14:40:41.753Z,27.70
2022-11-01T14:43:44.207Z,26.00
2022-11-01T14:46:16.242Z,24.20
2022-11-01T14:48:48.526Z,27.80
2022-11-01T14:51:26.007Z,28.70
2022-11-01T14:54:21.933Z,27.30
2022-11-01T14:56:52.980Z,28.00
2022-11-01T14:59:24.097Z,28.00
2022-11-01T15:02:02.206Z,27.70
2022-11-01T15:04:46.105Z,25.90
2022-11-01T15:07:31.407Z,27.80
2022-11-01T15:10:14.603Z,34.40
2022-11-01T15:12:47.477Z,32.70
2022-11-01T15:15:21.764Z,31.50
2022-11-01T15:18:00.630Z,31.60
2022-11-01T15:20:40.845Z,31.10
2022-11-01T15:23:19.766Z,35.70
2022-11-01T15:25:52.851Z,33.30
2022-11-01T15:28:46.403Z,33.80
2022-11-01T15:31:14.849Z,34.30
2022-11-01T15:33:55.550Z,34.30
2022-11-01T15:36:31.607Z,35.90
2022-11-01T15:39:02.802Z,34.60
2022-11-01T15:41:32.323Z,35.30
2022-11-01T15:44:06.420Z,34.00
2022-11-01T15:46:41.733Z,31.50
2022-11-01T15:49:17.852Z,31.40
2022-11-01T15:52:16.219Z,30.80
2022-11-01T15:54:51.300Z,32.10
2022-11-01T16:00:22.589Z,31.40
2022-11-01T16:03:03.813Z,33.30
2022-11-01T16:05:41.754Z,32.80
2022-11-01T16:08:29.596Z,29.90
2022-11-01T16:10:58.609Z,27.30
2022-11-01T16:13:27.520Z,26.80
2022-11-01T16:16:13.216Z,28.30
2022-11-01T16:18:45.200Z,27.00
2022-11-01T16:21:19.333Z,29.30
2022-11-01T16:23:51.087Z,29.20
2022-11-01T16:26:19.474Z,39.50
2022-11-01T16:28:50.663Z,36.60
2022-11-01T16:31:23.762Z,39.60
2022-11-01T16:33:56.478Z,36.10
2022-11-01T16:36:43.902Z,32.00
2022-11-01T16:39:27.739Z,25.40
2022-11-01T16:41:56.300Z,24.10
2022-11-01T16:44:25.433Z,24.00
2022-11-01T16:46:55.050Z,21.10
2022-11-01T16:49:25.994Z,21.20
2022-11-01T16:51:56.830Z,22.70
2022-11-01T16:54:25.742Z,40.40
2022-11-01T16:56:56.883Z,45.40
2022-11-01T16:59:34.172Z,40.70
2022-11-01T17:02:24.552Z,42.50
2022-11-01T17:04:58.588Z,36.00
2022-11-01T17:07:27.725Z,36.00
2022-11-01T17:09:56.042Z,31.90
2022-11-01T17:12:24.319Z,28.40
2022-11-01T17:14:53.278Z,24.90
2022-11-01T17:17:24.868Z,24.10
2022-11-01T17:19:59.561Z,23.30
2022-11-01T17:22:33.704Z,23.40
2022-11-01T17:25:04.145Z,21.70
2022-11-01T17:27:32.418Z,21.60
2022-11-01T17:30:00.916Z,22.70
2022-11-01T17:32:29.209Z,21.80
2022-11-01T17:34:57.416Z,27.20
2022-11-01T17:37:27.105Z,26.50
2022-11-01T17:39:55.506Z,21.00
2022-11-01T17:42:23.783Z,23.70
2022-11-01T17:45:14.964Z,24.20
2022-11-01T17:47:43.881Z,25.70
2022-11-01T17:50:15.378Z,26.10
2022-11-01T17:52:43.871Z,26.00
2022-11-01T17:55:12.277Z,26.60
2022-11-01T17:57:41.467Z,31.70
2022-11-01T18:00:10.977Z,27.40
2022-11-01T18:02:43.213Z,27.00
2022-11-01T18:05:11.945Z,27.80
2022-11-01T18:07:47.774Z,26.10
2022-11-01T18:10:21.008Z,23.60
2022-11-01T18:13:00.297Z,23.60
2022-11-01T18:15:42.415Z,23.60
2022-11-01T18:18:20.573Z,22.60
2022-11-01T18:21:29.799Z,22.40
2022-11-01T18:24:03.957Z,22.00
2022-11-01T18:26:32.652Z,22.30
2022-11-01T18:29:23.665Z,21.80
2022-11-01T18:32:14.716Z,23.10
2022-11-01T18:35:05.670Z,21.00
2022-11-01T18:38:12.769Z,22.60
2022-11-01T18:40:43.669Z,22.60
2022-11-01T18:43:11.984Z,24.60
2022-11-01T18:46:04.375Z,22.60
2022-11-01T18:48:29.204Z,23.10
2022-11-01T18:51:05.990Z,22.10
2022-11-01T18:53:34.572Z,22.00
2022-11-01T18:56:21.119Z,21.80
2022-11-01T18:58:52.546Z,23.10
2022-11-01T19:01:31.928Z,23.10
2022-11-01T19:04:36.111Z,23.00
2022-11-01T19:07:35.157Z,23.40
2022-11-01T19:10:19.163Z,22.30
2022-11-01T19:12:55.415Z,23.90
2022-11-01T19:15:34.957Z,23.40
2022-11-01T19:18:15.689Z,23.90
2022-11-01T19:20:51.088Z,24.90
2022-11-01T19:23:33.398Z,22.90
2022-11-01T19:26:03.785Z,23.60
2022-11-01T19:28:40.782Z,26.00
2022-11-01T19:31:26.870Z,26.60
2022-11-01T19:34:00.564Z,25.90
2022-11-01T19:36:40.709Z,26.00
2022-11-01T19:39:24.658Z,25.10
2022-11-01T19:41:55.957Z,26.30
2022-11-01T19:44:26.013Z,25.00
2022-11-01T19:47:06.255Z,21.50
2022-11-01T19:49:42.989Z,23.50
2022-11-01T19:52:11.903Z,22.60
2022-11-01T19:54:43.609Z,22.00
2022-11-01T19:57:34.360Z,21.20
2022-11-01T20:00:11.797Z,25.50
2022-11-01T20:02:40.129Z,27.40
2022-11-01T20:05:33.305Z,28.80
2022-11-01T20:08:21.628Z,22.70
2022-11-01T20:10:49.841Z,23.20
2022-11-01T20:13:18.206Z,22.40
2022-11-01T20:15:47.294Z,21.40
2022-11-01T20:18:16.450Z,26.50
2022-11-01T20:20:46.032Z,28.30
2022-11-01T20:23:30.059Z,26.40
2022-11-01T20:25:58.419Z,42.50
2022-11-01T20:28:27.168Z,41.40
2022-11-01T20:30:56.302Z,41.70
2022-11-01T20:33:25.696Z,34.80
2022-11-01T20:35:54.325Z,30.70
2022-11-01T20:38:23.724Z,24.70
2022-11-01T20:40:54.836Z,28.10
2022-11-01T20:43:24.112Z,23.40
2022-11-01T20:45:52.386Z,20.70
2022-11-01T20:48:20.607Z,20.40
2022-11-01T20:50:48.855Z,21.10
2022-11-01T20:53:17.277Z,29.10
2022-11-01T20:55:45.676Z,27.60
2022-11-01T20:58:14.300Z,30.70
2022-11-01T21:00:43.069Z,32.80
2022-11-01T21:03:16.254Z,30.90
2022-11-01T21:05:46.856Z,26.50
2022-11-01T21:08:22.778Z,27.50
2022-11-01T21:10:57.666Z,33.80
2022-11-01T21:13:27.613Z,35.10
2022-11-01T21:15:58.524Z,30.20
2022-11-01T21:18:38.157Z,30.20
2022-11-01T21:21:15.508Z,29.20
2022-11-01T21:23:44.752Z,28.80
2022-11-01T21:26:20.769Z,30.80
2022-11-01T21:28:58.840Z,30.10
2022-11-01T21:31:37.866Z,27.70
2022-11-01T21:34:11.932Z,23.70
2022-11-01T21:36:46.371Z,25.10
2022-11-01T21:39:24.310Z,25.90
2022-11-01T21:41:57.177Z,28.30
2022-11-01T21:44:35.379Z,30.90
2022-11-01T21:47:06.616Z,48.00
2022-11-01T21:49:36.723Z,31.80
2022-11-01T21:52:07.770Z,46.10
2022-11-01T21:54:38.098Z,42.20
2022-11-01T21:57:09.365Z,42.10
2022-11-01T21:59:37.560Z,47.80
2022-11-01T22:02:07.540Z,46.50
2022-11-01T22:04:36.108Z,42.30
2022-11-01T22:07:07.128Z,36.40
2022-11-01T22:09:36.124Z,37.50
2022-11-01T22:12:05.008Z,34.00
2022-11-01T22:14:33.384Z,33.00
2022-11-01T22:17:01.607Z,30.70
2022-11-01T22:19:29.892Z,28.30
2022-11-01T22:21:58.188Z,30.50
2022-11-01T22:24:26.474Z,28.60
2022-11-01T22:26:54.721Z,29.80
2022-11-01T22:29:22.887Z,28.30
2022-11-01T22:31:51.076Z,29.60
2022-11-01T22:34:19.360Z,27.30
2022-11-01T22:36:48.598Z,22.10
2022-11-01T22:39:21.011Z,22.60
2022-11-01T22:41:49.621Z,20.30
2022-11-01T22:44:24.949Z,20.30
2022-11-01T22:46:59.082Z,22.20
2022-11-01T22:49:41.987Z,23.50
2022-11-01T22:52:29.779Z,22.80
2022-11-01T22:55:25.604Z,23.80
2022-11-01T22:57:59.875Z,20.90
2022-11-01T23:00:36.374Z,23.50
2022-11-01T23:03:29.037Z,25.20
2022-11-01T23:06:00.148Z,23.60
2022-11-01T23:08:37.291Z,20.90
2022-11-01T23:11:05.607Z,20.50
2022-11-01T23:13:55.813Z,21.80
2022-11-01T23:16:35.154Z,22.10
2022-11-01T23:19:08.673Z,21.90
2022-11-01T23:21:36.957Z,22.30
2022-11-01T23:24:07.812Z,24.20
2022-11-01T23:26:36.044Z,24.10
2022-11-01T23:29:04.317Z,23.60
2022-11-01T23:31:32.579Z,23.20
2022-11-01T23:34:00.873Z,25.50
2022-11-01T23:36:33.208Z,27.20
2022-11-01T23:39:04.813Z,25.00
2022-11-01T23:41:43.331Z,26.10
2022-11-01T23:44:51.856Z,26.70
2022-11-01T23:47:25.435Z,26.00
2022-11-01T23:50:03.011Z,26.60
2022-11-01T23:52:52.621Z,27.50
2022-11-01T23:55:32.799Z,26.80
2022-11-01T23:58:07.444Z,26.20
